Time;durP1;ratioP1;P1;durP2;ratioP2;P2;SDS_P1;SDS_P2;PMS_P1;PMS_P2;Temp;Humidity;BMP_temperature;BMP_pressure;BME280_temperature;BME280_humidity;BME280_pressure;Samples;Min_cycle;Max_cycle;Signal;HPM_P1;HPM_P2
2022/07/16 00:03:25;;;;;;;4.53;1.63;;;20.00;46.10;;;19.28;47.40;96317.97;4944270;28;20095;-67
2022/07/16 00:05:51;;;;;;;2.72;1.75;;;20.10;46.70;;;19.25;48.70;96313.13;4939025;28;20526;-67
2022/07/16 00:08:16;;;;;;;4.78;1.67;;;20.00;46.60;;;19.21;48.29;96317.28;4945718;28;20476;-66
2022/07/16 00:10:42;;;;;;;4.32;2.10;;;19.90;47.00;;;19.20;48.18;96315.66;4924100;29;20521;-66
2022/07/16 00:13:08;;;;;;;3.08;1.73;;;19.90;47.20;;;19.15;48.75;96307.56;4939421;28;20026;-66
2022/07/16 00:15:34;;;;;;;5.65;1.73;;;19.90;47.70;;;19.14;49.37;96327.28;4916633;28;20081;-66
2022/07/16 00:20:43;;;;;;;5.43;1.67;;;19.80;48.10;;;19.06;50.20;96319.66;4923956;28;20047;-66
2022/07/16 00:23:09;;;;;;;6.13;1.70;;;19.80;48.50;;;19.02;50.32;96315.84;4952463;28;20043;-66
2022/07/16 00:25:35;;;;;;;5.25;1.90;;;19.70;48.50;;;18.96;50.32;96305.06;4936941;28;20055;-66
2022/07/16 00:28:01;;;;;;;3.15;1.70;;;19.60;48.60;;;18.91;50.28;96306.84;4946535;28;20426;-65
2022/07/16 00:30:27;;;;;;;3.05;1.48;;;19.60;49.10;;;18.85;50.17;96308.59;4963697;28;20418;-66
2022/07/16 00:32:53;;;;;;;5.65;1.83;;;19.50;49.30;;;18.80;51.23;96310.34;4945588;28;20129;-66
2022/07/16 00:35:18;;;;;;;2.15;1.48;;;19.50;49.50;;;18.76;50.88;96310.00;4933115;28;20557;-66
2022/07/16 00:37:44;;;;;;;5.38;1.83;;;19.50;49.70;;;18.71;51.58;96311.75;4953843;28;20066;-65
2022/07/16 00:40:10;;;;;;;4.35;1.60;;;19.40;50.00;;;18.67;52.08;96308.75;4917163;28;20066;-66
2022/07/16 00:42:36;;;;;;;4.15;1.85;;;19.30;50.00;;;18.61;51.60;96304.31;4946287;28;20051;-66
2022/07/16 00:45:02;;;;;;;3.90;2.00;;;19.30;49.80;;;18.58;51.46;96302.13;4917513;29;20032;-66
2022/07/16 00:47:28;;;;;;;3.75;1.80;;;19.30;50.00;;;18.52;51.03;96314.50;4948100;28;20062;-66
2022/07/16 00:49:54;;;;;;;4.57;1.92;;;19.20;49.80;;;18.47;51.57;96314.41;4944906;28;20035;-65
2022/07/16 00:52:19;;;;;;;3.05;1.58;;;19.10;50.50;;;18.42;52.18;96311.63;4958975;28;20042;-66
2022/07/16 00:54:45;;;;;;;4.28;1.80;;;19.10;50.80;;;18.40;53.11;96324.38;4910180;29;20043;-68
2022/07/16 00:57:11;;;;;;;4.38;1.95;;;19.10;51.10;;;18.32;53.27;96314.88;4934074;28;20113;-66
2022/07/16 00:59:36;;;;;;;3.97;1.75;;;19.10;51.20;;;18.29;52.77;96315.34;4939902;29;20067;-66
2022/07/16 01:02:02;;;;;;;4.18;1.83;;;19.00;51.50;;;18.24;53.09;96311.75;4945955;28;20384;-66
2022/07/16 01:04:28;;;;;;;4.90;1.88;;;19.00;51.70;;;18.21;53.60;96312.22;4934602;28;20069;-67
2022/07/16 01:06:54;;;;;;;3.03;1.73;;;19.00;52.00;;;18.17;53.91;96311.88;4929765;28;20388;-66
2022/07/16 01:09:19;;;;;;;5.00;2.03;;;18.90;52.10;;;18.14;54.56;96308.88;4927811;29;20507;-66
2022/07/16 01:11:45;;;;;;;4.63;1.83;;;18.80;52.00;;;18.10;54.48;96316.47;4927577;28;20043;-66
2022/07/16 01:14:11;;;;;;;6.10;1.80;;;18.80;52.30;;;18.06;54.70;96331.31;4915678;28;20587;-67
2022/07/16 01:16:37;;;;;;;3.75;2.08;;;18.80;52.50;;;18.01;54.09;96318.69;4944421;28;20045;-66
2022/07/16 01:19:02;;;;;;;3.20;1.77;;;18.70;52.30;;;17.95;54.90;96324.13;4928962;29;20122;-66
2022/07/16 01:21:28;;;;;;;4.13;2.05;;;18.60;52.50;;;17.91;54.45;96322.97;4960243;28;20051;-67
2022/07/16 01:23:54;;;;;;;5.47;2.20;;;18.60;52.60;;;17.86;55.12;96320.97;4927990;28;20074;-65
2022/07/16 01:26:20;;;;;;;5.13;1.90;;;18.60;52.50;;;17.84;54.53;96322.25;4899518;29;20064;-66
2022/07/16 01:28:45;;;;;;;3.10;1.75;;;18.60;52.70;;;17.80;55.41;96323.75;4925698;28;20091;-66
2022/07/16 01:31:12;;;;;;;3.35;1.75;;;18.60;53.00;;;17.76;54.83;96320.75;4932659;28;20510;-66
2022/07/16 01:33:40;;;;;;;6.20;2.22;;;18.50;53.10;;;17.73;55.16;96323.84;4937411;28;20042;-66
2022/07/16 01:36:08;;;;;;;4.40;2.17;;;18.50;53.20;;;17.71;55.63;96324.09;4947514;28;20526;-67
2022/07/16 01:38:37;;;;;;;5.13;1.90;;;18.50;53.20;;;17.67;55.78;96317.59;4947865;28;20035;-67
2022/07/16 01:41:02;;;;;;;4.60;2.05;;;18.50;52.90;;;17.65;55.54;96324.97;4931752;29;20525;-66
2022/07/16 01:43:29;;;;;;;4.57;2.10;;;18.40;53.00;;;17.61;55.16;96323.78;4956068;28;20063;-67
2022/07/16 01:45:54;;;;;;;5.57;2.20;;;18.40;52.90;;;17.57;55.07;96327.94;4933934;28;20042;-67
2022/07/16 01:48:21;;;;;;;4.82;2.17;;;18.30;53.00;;;17.52;55.98;96330.47;4962539;28;20486;-67
2022/07/16 01:50:46;;;;;;;7.95;2.25;;;18.20;53.50;;;17.49;55.55;96328.28;4929683;28;20620;-68
2022/07/16 01:53:15;;;;;;;5.25;2.25;;;18.30;53.50;;;17.44;56.26;96320.19;4935071;28;20027;-66
2022/07/16 01:55:41;;;;;;;4.40;2.45;;;18.20;53.60;;;17.42;56.08;96322.22;4943524;28;20570;-67
2022/07/16 01:58:08;;;;;;;3.75;1.98;;;18.20;53.40;;;17.39;56.40;96326.16;4936339;28;20102;-67
2022/07/16 02:00:35;;;;;;;5.13;2.05;;;18.10;53.50;;;17.37;55.73;96322.09;4929281;29;20032;-67
2022/07/16 02:03:01;;;;;;;2.53;1.83;;;18.10;53.50;;;17.33;56.51;96321.75;4928757;29;20036;-67
2022/07/16 02:05:26;;;;;;;4.18;2.10;;;18.10;53.60;;;17.33;56.62;96326.25;4953587;28;20097;-67
2022/07/16 02:07:52;;;;;;;2.92;1.80;;;18.10;53.70;;;17.30;56.49;96326.69;4959045;28;20047;-67
2022/07/16 02:10:18;;;;;;;3.70;2.05;;;18.10;53.90;;;17.25;57.09;96324.72;4960988;28;20102;-67
2022/07/16 02:12:45;;;;;;;7.90;2.30;;;18.00;54.30;;;17.21;56.53;96323.56;4923710;28;20071;-66
2022/07/16 02:15:11;;;;;;;2.67;1.67;;;18.00;54.40;;;17.18;57.30;96320.50;4938281;28;20041;-66
2022/07/16 02:17:37;;;;;;;4.00;2.00;;;17.90;54.70;;;17.14;57.67;96317.50;4938373;28;20102;-67
2022/07/16 02:20:03;;;;;;;6.28;2.40;;;17.90;54.80;;;17.08;58.08;96323.72;4952572;28;20044;-67
2022/07/16 02:22:29;;;;;;;5.15;2.20;;;17.80;55.20;;;17.03;57.75;96327.06;4942930;28;20159;-67
2022/07/16 02:24:55;;;;;;;4.63;2.17;;;17.70;55.40;;;16.97;58.24;96321.78;4955131;28;20128;-66
2022/07/16 02:27:21;;;;;;;4.38;2.03;;;17.70;55.60;;;16.93;58.40;96324.09;4928499;29;20463;-66
2022/07/16 02:29:46;;;;;;;6.57;2.65;;;17.70;55.50;;;16.88;58.91;96323.97;4938255;28;20436;-66
2022/07/16 02:32:12;;;;;;;5.65;2.33;;;17.70;55.60;;;16.86;57.97;96328.69;4951516;28;20414;-66
2022/07/16 02:34:38;;;;;;;2.08;1.88;;;17.60;55.70;;;16.81;58.14;96331.22;4937176;29;20023;-66
2022/07/16 02:37:04;;;;;;;3.65;1.90;;;17.60;55.80;;;16.77;59.12;96332.69;4930501;29;20533;-66
2022/07/16 02:39:29;;;;;;;4.35;2.15;;;17.60;55.50;;;16.74;58.30;96338.41;4914982;29;20043;-66
2022/07/16 02:41:55;;;;;;;4.40;2.10;;;17.60;55.70;;;16.70;58.81;96331.94;4941981;28;20098;-65
2022/07/16 02:44:21;;;;;;;5.32;2.22;;;17.60;55.90;;;16.69;58.70;96332.97;4964570;28;20122;-65
2022/07/16 02:46:46;;;;;;;4.45;2.08;;;17.50;56.10;;;16.64;59.46;96338.09;4944386;28;20119;-65
2022/07/16 02:49:12;;;;;;;4.10;2.40;;;17.40;56.20;;;16.61;59.22;96338.53;4940606;28;20114;-65
2022/07/16 02:51:38;;;;;;;3.83;2.03;;;17.40;56.30;;;16.58;59.44;96339.00;4924522;28;20047;-66
2022/07/16 02:54:04;;;;;;;3.42;2.20;;;17.40;56.50;;;16.54;60.07;96342.09;4949931;28;20035;-66
2022/07/16 02:56:30;;;;;;;5.55;2.40;;;17.30;56.70;;;16.52;59.59;96340.66;4950559;28;20031;-67
2022/07/16 02:58:56;;;;;;;4.30;2.35;;;17.30;57.00;;;16.49;60.16;96341.91;4932939;29;20031;-66
2022/07/16 03:01:22;;;;;;;4.68;2.05;;;17.30;57.10;;;16.45;60.66;96340.75;4904031;29;20497;-66
2022/07/16 03:03:47;;;;;;;4.15;2.30;;;17.30;57.20;;;16.43;60.26;96336.69;4953107;28;20106;-66
2022/07/16 03:06:13;;;;;;;3.53;2.13;;;17.20;57.50;;;16.40;61.12;96337.94;4944683;28;20082;-66
2022/07/16 03:08:39;;;;;;;7.00;2.53;;;17.20;58.10;;;16.36;61.66;96336.75;4949177;28;20035;-65
2022/07/16 03:11:05;;;;;;;5.38;2.30;;;17.20;58.30;;;16.36;62.21;96342.06;4941824;28;20110;-66
2022/07/16 03:13:30;;;;;;;6.07;2.67;;;17.20;58.50;;;16.34;61.75;96338.81;4943043;28;20032;-66
2022/07/16 03:15:56;;;;;;;6.68;2.63;;;17.10;58.50;;;16.29;62.35;96336.00;4922755;28;20044;-65
2022/07/16 03:18:22;;;;;;;5.15;2.60;;;17.10;58.70;;;16.26;62.11;96341.72;4953419;28;20536;-65
2022/07/16 03:20:48;;;;;;;4.32;2.67;;;17.10;59.00;;;16.21;62.40;96338.94;4923388;28;20114;-65
2022/07/16 03:23:14;;;;;;;5.07;2.60;;;17.10;59.10;;;16.17;62.66;96345.72;4936830;28;20127;-66
2022/07/16 03:25:41;;;;;;;4.35;2.53;;;17.00;59.30;;;16.13;63.30;96348.00;4934538;28;20032;-66
2022/07/16 03:28:08;;;;;;;4.00;2.60;;;17.00;59.50;;;16.12;63.64;96350.88;4952887;28;20039;-66
2022/07/16 03:30:35;;;;;;;3.80;2.47;;;17.00;59.50;;;16.10;63.30;96352.94;4940769;28;20039;-63
2022/07/16 03:33:00;;;;;;;4.55;2.72;;;16.90;59.50;;;16.06;63.93;96352.53;4935876;28;20031;-63
2022/07/16 03:35:26;;;;;;;6.38;2.80;;;16.90;59.50;;;16.05;63.95;96360.69;4946523;28;20130;-70
2022/07/16 03:40:36;;;;;;;5.35;3.03;;;16.90;59.90;;;16.01;63.47;96354.22;4948433;28;20111;-65
2022/07/16 03:43:02;;;;;;;4.85;3.20;;;16.80;60.10;;;15.99;64.21;96356.28;4924944;29;20043;-63
2022/07/16 03:45:28;;;;;;;8.43;5.22;;;16.80;60.50;;;15.95;64.57;96355.91;4937268;28;20049;-64
2022/07/16 03:47:53;;;;;;;5.75;4.18;;;16.90;60.50;;;15.94;64.77;96354.28;4951466;28;20622;-64
2022/07/16 03:50:19;;;;;;;6.95;3.63;;;16.80;60.50;;;15.90;65.12;96353.09;4898292;29;20032;-67
2022/07/16 03:52:45;;;;;;;6.00;3.20;;;16.80;60.90;;;15.86;65.26;96358.00;4916252;29;20047;-65
2022/07/16 03:55:11;;;;;;;5.57;3.30;;;16.70;60.50;;;15.84;64.72;96368.03;4940890;28;20031;-64
2022/07/16 03:57:37;;;;;;;10.43;3.40;;;16.70;60.90;;;15.82;65.71;96364.75;4928714;29;20059;-65
2022/07/16 04:00:04;;;;;;;4.10;2.90;;;16.70;61.10;;;15.81;66.22;96368.44;4934350;28;20069;-65
2022/07/16 04:02:30;;;;;;;5.78;3.00;;;16.70;61.20;;;15.77;65.28;96371.72;4923787;28;20047;-66
2022/07/16 04:04:56;;;;;;;8.07;3.50;;;16.60;61.10;;;15.72;66.30;96377.69;4931505;28;20113;-66
2022/07/16 04:07:21;;;;;;;4.22;3.13;;;16.70;61.40;;;15.72;65.90;96377.69;4926854;28;20709;-66
2022/07/16 04:09:47;;;;;;;5.95;3.17;;;16.70;61.10;;;15.70;65.49;96379.75;4921735;28;20056;-66
2022/07/16 04:12:13;;;;;;;6.05;3.00;;;16.70;60.70;;;15.70;66.21;96382.41;4910417;28;20047;-66
2022/07/16 04:14:39;;;;;;;4.93;2.85;;;16.70;60.60;;;15.70;66.03;96377.09;4940325;28;20039;-66
2022/07/16 04:17:04;;;;;;;4.35;2.90;;;16.70;60.60;;;15.69;65.94;96375.47;4958728;28;20086;-66
2022/07/16 04:19:30;;;;;;;5.22;2.72;;;16.60;60.40;;;15.71;66.04;96386.66;4928695;29;20546;-65
2022/07/16 04:21:56;;;;;;;10.38;3.17;;;16.70;60.40;;;15.70;65.86;96384.25;4917391;28;20031;-65
2022/07/16 04:24:21;;;;;;;4.40;2.60;;;16.60;60.80;;;15.68;65.48;96376.50;4913241;29;20091;-65
2022/07/16 04:26:47;;;;;;;4.68;2.80;;;16.70;60.90;;;15.67;66.70;96380.19;4906615;29;20047;-66
2022/07/16 04:29:13;;;;;;;6.60;3.10;;;16.70;61.00;;;15.66;66.45;96377.75;4914433;29;20043;-66
2022/07/16 04:31:39;;;;;;;4.45;2.60;;;16.70;61.10;;;15.66;66.52;96383.03;4955997;28;20069;-66
2022/07/16 04:34:04;;;;;;;5.22;2.92;;;16.60;61.00;;;15.67;67.10;96393.44;4931051;28;20050;-65
2022/07/16 04:36:30;;;;;;;7.82;2.88;;;16.70;61.30;;;15.69;67.25;96391.38;4949248;28;20503;-66
2022/07/16 04:38:56;;;;;;;5.25;2.97;;;16.80;61.40;;;15.69;66.56;96393.22;4932029;29;20067;-66
2022/07/16 04:41:22;;;;;;;5.03;2.70;;;16.60;61.00;;;15.67;66.57;96396.09;4899677;29;20474;-66
2022/07/16 04:43:47;;;;;;;5.43;2.67;;;16.70;61.00;;;15.68;67.17;96395.06;4931317;28;20411;-66
2022/07/16 04:46:13;;;;;;;3.83;2.70;;;16.70;61.00;;;15.71;66.49;96399.94;4930652;28;20047;-66
2022/07/16 04:48:40;;;;;;;6.32;3.00;;;16.80;61.20;;;15.74;66.88;96399.50;4907117;29;20499;-67
2022/07/16 04:51:06;;;;;;;4.80;2.90;;;16.80;61.00;;;15.75;66.30;96397.66;4931026;28;20035;-66
2022/07/16 04:53:31;;;;;;;6.25;3.00;;;16.90;60.80;;;15.78;66.41;96402.53;4915465;29;20036;-66
2022/07/16 04:55:57;;;;;;;7.90;2.85;;;16.90;60.90;;;15.80;66.02;96390.69;4915083;28;20041;-66
2022/07/16 04:58:23;;;;;;;6.85;3.05;;;16.90;60.30;;;15.85;65.74;96390.06;4930609;29;20130;-66
2022/07/16 05:00:49;;;;;;;7.50;2.33;;;17.00;59.90;;;15.87;65.65;96398.63;4931299;29;20078;-66
2022/07/16 05:03:14;;;;;;;7.22;3.33;;;17.00;59.60;;;15.87;65.55;96388.81;4929384;28;20407;-66
2022/07/16 05:05:40;;;;;;;4.18;2.72;;;16.90;59.00;;;15.92;66.32;96393.47;4949531;28;20550;-67
2022/07/16 05:08:08;;;;;;;4.15;3.05;;;17.10;59.60;;;15.96;65.20;96399.16;4933976;28;20103;-67
2022/07/16 05:10:33;;;;;;;8.25;2.88;;;17.10;59.10;;;15.98;64.98;96397.09;4915134;29;20024;-67
2022/07/16 05:12:59;;;;;;;5.60;2.95;;;17.10;58.70;;;16.01;65.32;96397.47;4899537;29;20166;-66
2022/07/16 05:15:26;;;;;;;6.07;2.55;;;17.20;58.50;;;16.06;64.95;96394.16;4915047;29;20035;-66
2022/07/16 05:17:52;;;;;;;4.80;2.88;;;17.20;58.50;;;16.09;65.08;96396.41;4920732;28;20173;-66
2022/07/16 05:20:17;;;;;;;4.88;2.55;;;17.20;58.60;;;16.12;64.15;96395.97;4928904;29;20114;-67
2022/07/16 05:22:43;;;;;;;8.00;2.70;;;17.30;58.20;;;16.16;65.25;96402.47;4954108;28;20417;-66
2022/07/16 05:25:09;;;;;;;4.40;3.15;;;17.40;58.10;;;16.21;64.19;96399.97;4927795;29;20427;-66
2022/07/16 05:27:35;;;;;;;4.80;3.20;;;17.40;58.50;;;16.26;64.50;96405.44;4953668;28;20062;-66
2022/07/16 05:30:02;;;;;;;4.30;2.75;;;17.50;58.20;;;16.31;64.37;96397.66;4937527;28;20028;-65
2022/07/16 05:32:28;;;;;;;7.70;2.67;;;17.60;58.40;;;16.35;64.32;96401.50;4922500;29;20042;-67
2022/07/16 05:34:53;;;;;;;4.93;2.50;;;17.60;57.10;;;16.39;63.64;96405.34;4940685;28;20032;-66
2022/07/16 05:37:19;;;;;;;4.47;2.40;;;17.60;56.80;;;16.44;63.22;96413.47;4953707;28;20462;-66
2022/07/16 05:39:45;;;;;;;5.32;2.15;;;17.60;56.50;;;16.50;63.72;96412.59;4937817;28;20458;-66
2022/07/16 05:42:11;;;;;;;7.30;4.63;;;17.70;57.00;;;16.56;63.06;96410.91;4937392;28;20039;-66
2022/07/16 05:44:36;;;;;;;6.88;4.63;;;17.70;56.90;;;16.64;63.65;96407.16;4921905;29;20047;-67
2022/07/16 05:47:02;;;;;;;8.35;3.45;;;18.00;57.30;;;16.74;63.29;96410.94;4929082;29;20039;-66
2022/07/16 05:49:28;;;;;;;6.63;5.28;;;18.10;56.50;;;16.82;63.45;96420.50;4934908;28;20047;-67
2022/07/16 05:51:54;;;;;;;9.80;5.80;;;18.10;57.10;;;16.92;63.82;96414.66;4902402;28;20032;-66
2022/07/16 05:54:19;;;;;;;4.93;3.38;;;18.30;57.20;;;17.03;63.90;96419.25;4925691;29;20105;-65
2022/07/16 05:56:45;;;;;;;12.02;9.73;;;18.50;57.00;;;17.17;63.97;96423.38;4921613;29;20040;-65
2022/07/16 05:59:11;;;;;;;10.18;5.68;;;18.60;56.70;;;17.29;63.63;96415.47;4945429;28;20537;-65
2022/07/16 06:01:36;;;;;;;12.05;10.20;;;18.80;56.50;;;17.44;63.44;96423.88;4928046;28;20548;-65
2022/07/16 06:04:02;;;;;;;5.47;3.60;;;19.00;55.20;;;17.58;63.03;96421.84;4929800;28;20673;-65
2022/07/16 06:06:28;;;;;;;3.53;2.47;;;19.10;54.40;;;17.74;62.01;96426.59;4932854;29;20118;-66
2022/07/16 06:08:54;;;;;;;7.05;2.42;;;19.30;54.40;;;17.94;61.90;96426.31;4952769;28;20039;-66
2022/07/16 06:11:19;;;;;;;4.85;2.30;;;19.60;53.30;;;18.15;61.27;96425.78;4945022;28;20136;-66
2022/07/16 06:13:45;;;;;;;5.53;3.67;;;19.90;52.20;;;18.35;60.07;96426.28;4943416;28;20055;-66
2022/07/16 06:16:11;;;;;;;15.82;11.48;;;20.10;51.60;;;18.56;60.90;96432.91;4944505;28;20072;-64
2022/07/16 06:18:36;;;;;;;6.13;4.38;;;20.30;51.50;;;18.77;59.56;96428.06;4943556;29;20174;-64
2022/07/16 06:21:02;;;;;;;9.55;7.65;;;20.60;50.20;;;18.97;59.42;96425.84;4933821;28;20074;-66
2022/07/16 06:23:28;;;;;;;6.25;2.92;;;20.90;50.20;;;19.17;59.58;96428.13;4938539;28;20066;-67
2022/07/16 06:25:54;;;;;;;8.18;5.13;;;21.10;49.00;;;19.34;58.38;96426.38;4935686;29;20468;-66
2022/07/16 06:28:20;;;;;;;6.78;3.80;;;21.40;48.30;;;19.54;57.52;96428.66;4924196;28;20121;-64
2022/07/16 06:30:45;;;;;;;6.07;4.47;;;21.70;47.30;;;19.70;57.03;96427.09;4949973;28;20043;-64
2022/07/16 06:33:11;;;;;;;11.10;7.93;;;21.80;46.30;;;19.88;55.59;96424.22;4937627;28;20098;-64
2022/07/16 06:35:37;;;;;;;6.07;3.13;;;22.10;46.20;;;20.10;54.98;96427.00;4926138;29;20115;-67
2022/07/16 06:38:03;;;;;;;5.07;3.15;;;22.50;45.20;;;20.30;54.82;96427.34;4947773;28;20056;-67
2022/07/16 06:40:29;;;;;;;4.85;2.17;;;22.60;44.70;;;20.50;54.40;96426.91;4942028;28;20031;-65
2022/07/16 06:42:55;;;;;;;5.55;2.13;;;22.90;44.50;;;20.72;53.70;96424.31;4920424;29;20196;-66
2022/07/16 06:45:21;;;;;;;4.30;2.10;;;23.10;43.60;;;20.91;52.61;96432.88;4944508;29;20032;-67
2022/07/16 06:47:47;;;;;;;6.85;3.55;;;23.30;42.90;;;21.10;52.33;96429.69;4936529;28;20038;-66
2022/07/16 06:50:13;;;;;;;6.15;3.20;;;23.60;42.70;;;21.32;51.96;96429.72;4935947;28;20043;-66
2022/07/16 06:52:39;;;;;;;7.43;4.78;;;23.90;41.70;;;21.45;51.46;96423.16;4926770;29;20036;-67
2022/07/16 06:55:05;;;;;;;6.88;5.10;;;24.00;41.90;;;21.64;50.51;96426.34;4927620;29;20122;-67
2022/07/16 06:57:31;;;;;;;5.07;2.10;;;24.20;40.40;;;21.82;49.68;96427.88;4954947;28;20043;-66
2022/07/16 06:59:57;;;;;;;5.90;2.20;;;24.40;40.50;;;21.98;48.77;96437.69;4943889;28;20114;-67
2022/07/16 07:02:22;;;;;;;3.58;1.83;;;24.50;39.10;;;22.13;48.72;96432.50;4923822;28;20039;-67
2022/07/16 07:04:49;;;;;;;4.90;2.28;;;24.70;39.20;;;22.31;47.92;96428.66;4925037;29;20087;-66
2022/07/16 07:07:14;;;;;;;6.00;2.20;;;25.00;38.10;;;22.49;47.11;96430.94;4949158;28;20063;-67
2022/07/16 07:09:40;;;;;;;3.80;1.90;;;25.20;37.70;;;22.70;47.17;96439.16;4952063;28;20043;-67
2022/07/16 07:12:06;;;;;;;4.05;1.48;;;25.50;37.80;;;22.92;46.79;96426.47;4942477;28;20122;-67
2022/07/16 07:14:32;;;;;;;3.03;1.40;;;25.80;37.20;;;23.13;45.54;96420.13;4931076;28;20031;-66
2022/07/16 07:16:57;;;;;;;4.20;1.65;;;26.10;36.00;;;23.42;44.37;96430.47;4956949;28;20098;-68
2022/07/16 07:19:23;;;;;;;4.22;1.50;;;26.30;34.30;;;23.65;43.86;96430.06;4928013;28;20038;-67
2022/07/16 07:21:49;;;;;;;6.70;1.77;;;26.50;34.70;;;23.88;43.80;96423.41;4961457;28;20035;-67
2022/07/16 07:24:15;;;;;;;2.50;1.60;;;26.60;34.30;;;24.03;42.53;96425.31;4960890;28;20054;-66
2022/07/16 07:26:40;;;;;;;3.97;1.60;;;26.60;33.70;;;24.19;42.48;96434.19;4965555;28;20039;-66
2022/07/16 07:29:06;;;;;;;4.10;1.60;;;26.70;34.80;;;24.35;41.97;96428.59;4939896;28;20049;-66
2022/07/16 07:31:32;;;;;;;4.50;1.90;;;26.80;34.50;;;24.53;41.68;96429.16;4937540;28;20474;-66
2022/07/16 07:33:57;;;;;;;4.07;1.88;;;27.00;34.10;;;24.74;41.46;96418.09;4958140;28;20065;-66
2022/07/16 07:36:23;;;;;;;4.20;1.70;;;27.40;34.00;;;24.94;40.90;96414.59;4949146;28;20032;-67
2022/07/16 07:38:49;;;;;;;5.35;2.28;;;27.60;33.10;;;25.12;40.29;96415.09;4945550;28;20562;-67
2022/07/16 07:41:14;;;;;;;5.72;1.98;;;27.70;32.50;;;25.40;40.09;96416.38;4937994;28;20507;-67
2022/07/16 07:43:40;;;;;;;4.30;1.98;;;28.10;32.60;;;25.72;39.70;96424.06;4940615;29;20046;-67
2022/07/16 07:46:06;;;;;;;7.80;2.20;;;28.60;31.70;;;25.99;39.09;96408.25;4931705;28;20040;-66
2022/07/16 07:48:32;;;;;;;4.22;2.83;;;28.80;31.00;;;26.24;39.16;96418.88;4932600;29;20146;-66
2022/07/16 07:50:58;;;;;;;4.03;2.30;;;28.90;31.00;;;26.52;38.06;96411.16;4916526;29;20110;-66
2022/07/16 07:53:24;;;;;;;7.63;4.53;;;29.10;30.70;;;26.73;37.94;96411.78;4930644;29;20043;-66
2022/07/16 07:55:50;;;;;;;8.70;4.10;;;29.30;30.30;;;27.00;37.58;96416.69;4949179;28;20126;-66
2022/07/16 07:58:15;;;;;;;5.88;2.70;;;29.70;30.40;;;27.24;37.42;96414.81;4918755;28;20067;-66
2022/07/16 08:00:42;;;;;;;7.25;3.20;;;30.00;30.60;;;27.50;37.61;96403.69;4971834;28;20454;-67
2022/07/16 08:03:08;;;;;;;5.88;3.28;;;30.20;30.50;;;27.74;36.58;96405.28;4958200;28;20036;-67
2022/07/16 08:05:34;;;;;;;5.53;3.05;;;30.30;29.30;;;27.94;36.39;96408.81;4940853;28;20117;-67
2022/07/16 08:08:00;;;;;;;3.92;2.20;;;30.40;29.50;;;28.05;35.62;96402.16;4976564;28;20031;-67
2022/07/16 08:10:25;;;;;;;3.78;2.10;;;30.50;28.40;;;28.22;35.05;96415.16;4972780;28;20035;-67
2022/07/16 08:12:51;;;;;;;4.68;1.95;;;30.60;29.00;;;28.42;34.51;96406.75;4944988;28;20133;-66
2022/07/16 08:15:17;;;;;;;3.63;2.00;;;30.90;28.50;;;28.55;34.13;96416.03;4956630;28;20506;-67
2022/07/16 08:17:43;;;;;;;2.55;1.60;;;31.00;27.40;;;28.62;33.40;96409.13;4963103;28;20430;-66
2022/07/16 08:20:10;;;;;;;2.95;1.80;;;31.10;27.20;;;28.69;32.88;96419.56;4948064;28;20534;-66
2022/07/16 08:22:36;;;;;;;3.58;1.80;;;31.30;26.70;;;28.79;33.46;96408.56;4954693;28;20031;-66
2022/07/16 08:27:47;;;;;;;4.40;1.88;;;31.80;25.50;;;29.13;31.99;96410.94;4933010;29;20577;-66
2022/07/16 08:30:12;;;;;;;4.60;2.03;;;32.00;25.60;;;29.26;31.33;96403.94;4960370;28;20040;-66
2022/07/16 08:32:38;;;;;;;4.40;1.63;;;32.00;25.40;;;29.35;30.94;96412.97;4942015;28;20081;-66
2022/07/16 08:35:04;;;;;;;6.05;2.30;;;32.00;24.60;;;29.50;31.30;96412.72;4968131;28;20035;-66
2022/07/16 08:37:38;;;;;;;5.32;2.00;;;32.40;25.50;;;29.74;29.29;96412.47;4927114;29;20050;-66
2022/07/16 08:40:11;;;;;;;3.88;2.50;;;32.40;23.80;;;29.84;30.97;96414.97;4907140;28;20031;-66
2022/07/16 08:42:37;;;;;;;4.10;1.70;;;32.70;25.80;;;30.09;30.69;96420.97;4924802;28;20043;-66
2022/07/16 08:45:05;;;;;;;7.65;2.40;;;33.00;25.50;;;30.34;30.20;96414.97;4939915;28;20576;-66
2022/07/16 08:47:31;;;;;;;4.22;1.80;;;33.20;24.20;;;30.51;30.33;96413.47;4916759;29;20134;-66
2022/07/16 08:49:59;;;;;;;3.33;1.80;;;33.20;24.50;;;30.65;29.03;96425.09;4930006;28;20127;-66
2022/07/16 08:52:27;;;;;;;3.50;1.88;;;33.00;23.50;;;30.77;29.17;96428.03;4944289;28;20043;-67
2022/07/16 08:54:53;;;;;;;4.65;2.15;;;33.30;23.90;;;30.90;28.76;96418.22;4951491;28;20089;-66
2022/07/16 08:57:19;;;;;;;4.95;2.05;;;33.10;23.60;;;30.82;28.68;96414.34;4928334;28;20067;-66
2022/07/16 08:59:45;;;;;;;3.63;1.83;;;32.70;23.70;;;30.91;28.86;96428.78;4924889;28;20835;-67
2022/07/16 09:02:13;;;;;;;5.65;1.92;;;33.10;24.40;;;31.02;27.91;96416.56;4946777;28;20036;-66
2022/07/16 09:04:41;;;;;;;3.95;1.77;;;33.30;24.00;;;31.08;28.39;96426.16;4934010;29;20039;-66
2022/07/16 09:07:06;;;;;;;2.92;1.90;;;33.50;24.20;;;31.15;28.09;96419.47;4916112;29;20422;-66
2022/07/16 09:09:32;;;;;;;5.13;1.80;;;33.50;23.90;;;31.16;28.65;96421.06;4926278;28;20141;-66
2022/07/16 09:11:58;;;;;;;3.88;1.88;;;33.40;24.40;;;31.25;28.44;96421.97;4961848;28;20038;-66
2022/07/16 09:14:24;;;;;;;3.80;2.33;;;33.60;24.30;;;31.42;27.95;96416.56;4958582;28;20035;-67
2022/07/16 09:16:52;;;;;;;6.70;1.75;;;33.80;23.80;;;31.46;27.49;96414.00;4941675;29;20525;-66
2022/07/16 09:19:21;;;;;;;3.20;1.80;;;33.60;23.90;;;31.53;27.98;96417.88;4955915;28;20039;-66
2022/07/16 09:22:19;;;;;;;4.88;1.60;;;33.70;23.70;;;31.57;26.83;96418.84;4939156;28;20063;-66
2022/07/16 09:24:52;;;;;;;3.38;1.80;;;33.70;23.50;;;31.59;26.29;96411.19;4899138;28;21620;-66
2022/07/16 09:27:27;;;;;;;2.85;1.90;;;33.60;23.30;;;31.60;26.55;96410.06;4957233;28;20094;-66
2022/07/16 09:29:56;;;;;;;3.67;2.05;;;33.60;22.90;;;31.57;26.87;96407.97;4961552;28;20023;-65
2022/07/16 09:32:27;;;;;;;3.05;1.85;;;33.50;23.60;;;31.68;26.73;96405.75;4915730;29;20024;-66
2022/07/16 09:35:11;;;;;;;3.60;1.77;;;34.00;23.70;;;31.86;27.27;96404.69;4953471;28;20109;-66
2022/07/16 09:37:54;;;;;;;4.32;2.28;;;34.40;23.60;;;31.93;26.62;96398.81;4955962;28;20474;-64
2022/07/16 09:40:46;;;;;;;2.50;1.60;;;34.30;23.10;;;31.99;26.08;96402.97;4922142;29;20039;-65
2022/07/16 09:43:15;;;;;;;4.60;1.80;;;34.50;22.60;;;32.02;27.13;96405.06;4915829;29;20130;-64
2022/07/16 09:45:48;;;;;;;5.60;1.80;;;34.40;22.90;;;32.08;26.29;96403.75;4945243;28;20047;-66
2022/07/16 09:48:30;;;;;;;3.10;1.85;;;34.30;22.20;;;32.06;25.53;96408.72;4918916;28;20098;-66
2022/07/16 09:51:12;;;;;;;2.63;1.63;;;34.40;22.90;;;32.13;26.56;96403.59;4948887;28;20074;-66
2022/07/16 09:53:40;;;;;;;3.45;1.80;;;34.50;23.10;;;32.20;26.39;96403.94;4976895;28;20038;-67
2022/07/16 09:56:08;;;;;;;3.42;1.80;;;34.60;22.50;;;32.35;26.38;96410.03;4946374;28;20514;-67
2022/07/16 09:58:34;;;;;;;2.90;1.80;;;35.10;22.80;;;32.44;27.11;96399.97;4933118;29;20060;-67
2022/07/16 10:01:00;;;;;;;4.25;1.88;;;35.40;22.30;;;32.55;26.64;96403.94;4935054;28;20039;-67
2022/07/16 10:03:26;;;;;;;4.25;1.83;;;35.40;22.00;;;32.74;26.56;96400.88;4938424;29;20035;-67
2022/07/16 10:05:52;;;;;;;3.65;2.00;;;35.90;21.90;;;32.92;26.43;96401.66;4963714;28;20046;-71
2022/07/16 10:08:18;;;;;;;4.70;2.35;;;36.30;21.10;;;33.07;26.05;96404.66;4966041;28;20051;-68
2022/07/16 10:10:44;;;;;;;3.65;1.92;;;36.60;21.00;;;33.25;25.71;96399.13;4962758;28;20509;-67
2022/07/16 10:13:10;;;;;;;3.08;1.65;;;36.80;20.20;;;33.28;25.23;96399.28;4959777;28;20035;-67
2022/07/16 10:15:36;;;;;;;4.30;1.65;;;36.20;20.60;;;33.42;25.26;96402.59;4947398;28;20061;-67
2022/07/16 10:18:03;;;;;;;3.63;1.75;;;36.60;20.20;;;33.65;25.69;96402.31;4976891;28;20118;-67
2022/07/16 10:20:33;;;;;;;4.75;1.60;;;37.10;20.10;;;33.90;24.91;96393.19;4911495;28;20031;-67
2022/07/16 10:22:59;;;;;;;3.88;1.70;;;37.50;20.50;;;34.08;25.27;96388.41;4949342;28;20494;-67
2022/07/16 10:25:26;;;;;;;3.92;1.88;;;37.50;19.70;;;34.31;24.79;96391.59;4960595;28;20062;-67